Time;durP1;ratioP1;P1;durP2;ratioP2;P2;SDS_P1;SDS_P2;PMS_P1;PMS_P2;Temp;Humidity;BMP_temperature;BMP_pressure;BME280_temperature;BME280_humidity;BME280_pressure;Samples;Min_cycle;Max_cycle;Signal;HPM_P1;HPM_P2
2022/05/14 00:00:37;;;;;;;29.02;8.68;;;;;;;;;;5101560;28;20054;-68
2022/05/14 00:03:02;;;;;;;34.58;8.50;;;;;;;;;;5109736;28;20016;-68
2022/05/14 00:05:42;;;;;;;26.95;7.68;;;;;;;;;;5112010;28;20486;-68
2022/05/14 00:08:07;;;;;;;36.67;8.80;;;;;;;;;;5109696;28;20031;-68
2022/05/14 00:13:03;;;;;;;28.95;8.82;;;;;;;;;;5112982;28;20459;-68
2022/05/14 00:13:33;;;;;;;42.88;7.93;;;;;;;;;;5111795;28;20023;-68
2022/05/14 00:15:59;;;;;;;25.30;7.80;;;;;;;;;;5113455;28;20483;-68
2022/05/14 00:18:24;;;;;;;26.55;7.97;;;;;;;;;;5108881;28;20091;-67
2022/05/14 00:21:03;;;;;;;23.55;8.20;;;;;;;;;;5111295;28;20367;-68
2022/05/14 00:23:29;;;;;;;38.72;8.10;;;;;;;;;;5106576;28;20027;-68
2022/05/14 00:25:55;;;;;;;35.30;8.40;;;;;;;;;;5101766;28;20360;-68
2022/05/14 00:28:33;;;;;;;28.42;8.38;;;;;;;;;;5107280;28;20027;-67
2022/05/14 00:30:59;;;;;;;35.95;7.70;;;;;;;;;;5098462;28;20040;-68
2022/05/14 00:33:24;;;;;;;39.40;7.90;;;;;;;;;;5108766;28;20095;-68
2022/05/14 00:36:02;;;;;;;28.60;7.72;;;;;;;;;;5110913;28;20069;-68
2022/05/14 00:38:28;;;;;;;29.02;7.38;;;;;;;;;;5102854;28;20073;-68
2022/05/14 00:40:56;;;;;;;28.92;7.93;;;;;;;;;;5101805;28;20019;-68
2022/05/14 00:43:34;;;;;;;31.95;8.00;;;;;;;;;;5111876;28;20023;-68
2022/05/14 00:46:09;;;;;;;36.40;8.05;;;;;;;;;;5098730;28;20039;-68
2022/05/14 00:48:47;;;;;;;25.25;7.72;;;;;;;;;;5101815;28;20076;-68
2022/05/14 00:51:18;;;;;;;26.05;7.70;;;;;;;;;;5111804;28;20088;-67
2022/05/14 00:53:58;;;;;;;31.40;7.35;;;;;;;;;;5106356;28;20091;-68
2022/05/14 00:56:27;;;;;;;23.90;7.40;;;;;;;;;;5107930;28;20038;-68
2022/05/14 00:59:08;;;;;;;27.92;7.07;;;;;;;;;;5111517;28;20425;-68
2022/05/14 01:01:34;;;;;;;33.90;7.32;;;;;;;;;;5108407;28;20035;-68
2022/05/14 01:04:08;;;;;;;30.48;7.80;;;;;;;;;;5114123;28;20515;-67
2022/05/14 01:06:40;;;;;;;31.27;7.97;;;;;;;;;;5108766;28;20036;-68
2022/05/14 01:09:06;;;;;;;33.25;7.10;;;;;;;;;;5112476;28;20046;-67
2022/05/14 01:11:39;;;;;;;28.65;7.05;;;;;;;;;;5101797;28;20024;-67
2022/05/14 01:14:10;;;;;;;30.35;7.47;;;;;;;;;;5110237;28;20032;-67
2022/05/14 01:16:36;;;;;;;25.65;6.93;;;;;;;;;;5115193;28;20029;-68
2022/05/14 01:19:08;;;;;;;30.63;8.43;;;;;;;;;;5117219;28;20019;-67
2022/05/14 01:21:58;;;;;;;26.95;7.38;;;;;;;;;;5111949;28;20035;-68
2022/05/14 01:27:24;;;;;;;29.47;6.60;;;;;;;;;;5113208;28;20738;-67
2022/05/14 01:29:56;;;;;;;28.05;6.57;;;;;;;;;;5115632;28;20287;-68
2022/05/14 01:32:22;;;;;;;26.90;6.65;;;;;;;;;;5114730;28;20055;-68
2022/05/14 01:34:54;;;;;;;24.42;6.85;;;;;;;;;;5116576;28;20095;-68
2022/05/14 01:37:25;;;;;;;25.25;6.30;;;;;;;;;;5108661;28;20031;-68
2022/05/14 01:39:52;;;;;;;29.83;6.25;;;;;;;;;;5107635;28;20031;-68
2022/05/14 01:42:23;;;;;;;22.95;6.85;;;;;;;;;;5104482;28;20028;-67
2022/05/14 01:44:56;;;;;;;35.60;6.53;;;;;;;;;;5116651;28;20038;-68
2022/05/14 01:47:21;;;;;;;26.55;6.80;;;;;;;;;;5105660;28;20032;-68
2022/05/14 01:49:52;;;;;;;19.67;5.78;;;;;;;;;;5114999;28;20016;-67
2022/05/14 01:52:25;;;;;;;26.10;6.85;;;;;;;;;;5107460;28;20027;-68
2022/05/14 01:54:50;;;;;;;31.70;6.60;;;;;;;;;;5106345;28;20110;-68
2022/05/14 01:57:22;;;;;;;28.30;6.75;;;;;;;;;;5109052;28;20436;-68
2022/05/14 01:59:55;;;;;;;25.25;7.07;;;;;;;;;;5116205;28;20032;-68
2022/05/14 02:02:20;;;;;;;33.95;7.30;;;;;;;;;;5110001;28;20062;-68
2022/05/14 02:04:51;;;;;;;25.67;6.97;;;;;;;;;;5112833;28;20039;-68
2022/05/14 02:07:23;;;;;;;26.17;6.57;;;;;;;;;;5106075;28;20027;-68
2022/05/14 02:09:49;;;;;;;25.17;6.15;;;;;;;;;;5112461;28;20045;-68
2022/05/14 02:12:20;;;;;;;25.45;5.60;;;;;;;;;;5114336;28;20012;-68
2022/05/14 02:14:52;;;;;;;31.63;6.72;;;;;;;;;;5116288;28;20027;-67
2022/05/14 02:17:18;;;;;;;19.65;6.18;;;;;;;;;;5115168;28;20147;-68
2022/05/14 02:19:50;;;;;;;27.02;6.03;;;;;;;;;;5116105;28;20404;-68
2022/05/14 02:22:21;;;;;;;24.10;6.40;;;;;;;;;;5103703;28;20032;-68
2022/05/14 02:24:47;;;;;;;31.40;6.47;;;;;;;;;;5115904;28;20104;-68
2022/05/14 02:27:18;;;;;;;33.50;6.75;;;;;;;;;;5104772;28;20099;-68
2022/05/14 02:29:50;;;;;;;16.95;5.10;;;;;;;;;;5104181;28;20149;-67
2022/05/14 02:32:25;;;;;;;22.33;5.68;;;;;;;;;;5112608;28;20051;-68
2022/05/14 02:34:59;;;;;;;23.15;6.15;;;;;;;;;;5115547;28;20486;-67
2022/05/14 02:37:25;;;;;;;39.25;6.25;;;;;;;;;;5104376;28;20115;-68
2022/05/14 02:39:56;;;;;;;22.08;5.40;;;;;;;;;;5110450;28;20011;-67
2022/05/14 02:42:29;;;;;;;28.58;5.97;;;;;;;;;;5109710;28;20080;-68
2022/05/14 02:44:54;;;;;;;20.92;5.40;;;;;;;;;;5115067;28;20433;-67
2022/05/14 02:47:26;;;;;;;26.15;5.75;;;;;;;;;;5111444;28;20007;-68
2022/05/14 02:49:58;;;;;;;22.20;5.60;;;;;;;;;;5115237;28;20042;-68
2022/05/14 02:52:23;;;;;;;21.95;5.38;;;;;;;;;;5112541;28;20433;-67
2022/05/14 02:54:54;;;;;;;30.80;6.07;;;;;;;;;;5115172;28;20051;-68
2022/05/14 02:57:27;;;;;;;21.92;5.10;;;;;;;;;;5114207;28;20399;-68
2022/05/14 02:59:52;;;;;;;24.85;6.10;;;;;;;;;;5112713;28;20027;-67
2022/05/14 03:02:24;;;;;;;18.73;5.88;;;;;;;;;;5107170;28;20093;-68
2022/05/14 03:04:57;;;;;;;24.13;5.53;;;;;;;;;;5114687;28;20367;-68
2022/05/14 03:07:22;;;;;;;27.15;6.30;;;;;;;;;;5109201;28;20036;-68
2022/05/14 03:09:53;;;;;;;29.50;5.80;;;;;;;;;;5105670;28;20014;-68
2022/05/14 03:12:26;;;;;;;25.33;6.07;;;;;;;;;;5104869;28;20034;-68
2022/05/14 03:14:51;;;;;;;27.02;5.25;;;;;;;;;;5102883;28;20040;-68
2022/05/14 03:17:23;;;;;;;20.80;5.57;;;;;;;;;;5105880;28;20129;-68
2022/05/14 03:19:55;;;;;;;22.48;5.47;;;;;;;;;;5114636;28;20055;-68
2022/05/14 03:22:21;;;;;;;20.58;5.90;;;;;;;;;;5104385;28;20040;-68
2022/05/14 03:24:52;;;;;;;21.05;5.22;;;;;;;;;;5114638;28;20084;-68
2022/05/14 03:27:25;;;;;;;25.40;5.63;;;;;;;;;;5109688;28;20073;-68
2022/05/14 03:29:50;;;;;;;24.40;5.93;;;;;;;;;;5113629;28;20079;-68
2022/05/14 03:32:21;;;;;;;27.88;5.95;;;;;;;;;;5111176;28;20054;-68
2022/05/14 03:34:54;;;;;;;20.65;5.85;;;;;;;;;;5114583;28;20035;-67
2022/05/14 03:37:20;;;;;;;19.00;5.85;;;;;;;;;;5108343;28;20119;-67
2022/05/14 03:39:51;;;;;;;23.17;5.90;;;;;;;;;;5107556;28;20531;-68
2022/05/14 03:42:24;;;;;;;27.60;6.90;;;;;;;;;;5099128;28;20383;-68
2022/05/14 03:44:49;;;;;;;20.70;6.05;;;;;;;;;;5114228;28;20110;-68
2022/05/14 03:47:21;;;;;;;17.77;6.00;;;;;;;;;;5103243;28;20095;-68
2022/05/14 03:49:53;;;;;;;30.42;6.47;;;;;;;;;;5114275;28;20034;-68
2022/05/14 03:52:19;;;;;;;24.33;5.57;;;;;;;;;;5110172;28;20031;-68
2022/05/14 03:54:50;;;;;;;28.75;6.63;;;;;;;;;;5103630;28;20078;-68
2022/05/14 03:57:23;;;;;;;20.25;5.45;;;;;;;;;;5104416;28;20387;-68
2022/05/14 03:59:48;;;;;;;26.00;5.85;;;;;;;;;;5104296;28;20032;-68
2022/05/14 04:02:21;;;;;;;30.75;6.15;;;;;;;;;;5107308;28;20485;-68
2022/05/14 04:04:53;;;;;;;22.00;4.82;;;;;;;;;;5105301;28;20519;-68
2022/05/14 04:07:18;;;;;;;21.95;5.47;;;;;;;;;;5102992;28;20032;-68
2022/05/14 04:09:51;;;;;;;32.88;6.32;;;;;;;;;;5110336;28;20022;-68
2022/05/14 04:12:22;;;;;;;17.90;4.85;;;;;;;;;;5110461;28;20031;-68
2022/05/14 04:14:48;;;;;;;33.08;5.70;;;;;;;;;;5114020;28;20102;-68
2022/05/14 04:17:19;;;;;;;29.70;6.05;;;;;;;;;;5111685;28;20164;-67
2022/05/14 04:19:52;;;;;;;21.60;6.13;;;;;;;;;;5113482;28;20140;-68
2022/05/14 04:22:17;;;;;;;21.33;5.80;;;;;;;;;;5103969;28;20055;-68
2022/05/14 04:24:48;;;;;;;26.63;6.00;;;;;;;;;;5113980;28;20370;-68
2022/05/14 04:27:20;;;;;;;27.85;5.50;;;;;;;;;;5100894;28;20509;-68
2022/05/14 04:29:46;;;;;;;22.20;5.78;;;;;;;;;;5112314;28;20075;-68
2022/05/14 04:32:17;;;;;;;25.15;5.95;;;;;;;;;;5103012;28;20091;-68
2022/05/14 04:34:50;;;;;;;23.67;5.55;;;;;;;;;;5113783;28;20050;-68
2022/05/14 04:37:15;;;;;;;15.43;5.40;;;;;;;;;;5108124;28;20031;-68
2022/05/14 04:39:46;;;;;;;30.05;6.07;;;;;;;;;;5113530;28;20488;-68
2022/05/14 04:42:19;;;;;;;19.75;5.15;;;;;;;;;;5103831;28;20049;-68
2022/05/14 04:44:44;;;;;;;27.17;5.90;;;;;;;;;;5113517;28;20035;-67
2022/05/14 04:47:16;;;;;;;18.58;5.97;;;;;;;;;;5105319;28;20360;-68
2022/05/14 04:49:49;;;;;;;24.67;5.15;;;;;;;;;;5113461;28;20110;-68
2022/05/14 04:52:14;;;;;;;28.50;5.78;;;;;;;;;;5107312;28;20375;-68
2022/05/14 04:54:45;;;;;;;19.30;5.50;;;;;;;;;;5110135;28;20012;-68
2022/05/14 04:57:18;;;;;;;18.50;5.13;;;;;;;;;;5110671;28;20024;-68
2022/05/14 04:59:43;;;;;;;22.33;5.60;;;;;;;;;;5113293;28;20032;-68
2022/05/14 05:05:05;;;;;;;20.75;5.05;;;;;;;;;;5111630;28;20072;-67
2022/05/14 05:07:37;;;;;;;16.30;4.65;;;;;;;;;;5112431;28;20035;-68
2022/05/14 05:10:03;;;;;;;21.17;4.72;;;;;;;;;;5106489;28;20023;-68
2022/05/14 05:12:36;;;;;;;19.27;4.60;;;;;;;;;;5101835;28;20020;-68
2022/05/14 05:15:07;;;;;;;17.98;4.13;;;;;;;;;;5113518;28;20046;-68
2022/05/14 05:17:33;;;;;;;16.48;4.25;;;;;;;;;;5101413;28;20031;-68
2022/05/14 05:20:05;;;;;;;18.17;4.57;;;;;;;;;;5113488;28;20016;-68
2022/05/14 05:22:37;;;;;;;19.13;4.10;;;;;;;;;;5105626;28;20032;-68
2022/05/14 05:25:02;;;;;;;22.30;4.63;;;;;;;;;;5113196;28;20435;-68
2022/05/14 05:27:35;;;;;;;17.08;3.78;;;;;;;;;;5105878;28;20050;-68
2022/05/14 05:30:07;;;;;;;20.17;3.97;;;;;;;;;;5104541;28;20488;-68
2022/05/14 05:32:33;;;;;;;21.27;4.20;;;;;;;;;;5108348;28;20069;-68
2022/05/14 05:35:05;;;;;;;19.77;3.80;;;;;;;;;;5113169;28;20012;-68
2022/05/14 05:37:36;;;;;;;16.15;4.22;;;;;;;;;;5098776;28;20089;-68
2022/05/14 05:40:02;;;;;;;14.20;3.97;;;;;;;;;;5098559;28;20032;-68
2022/05/14 05:42:34;;;;;;;14.70;4.30;;;;;;;;;;5112759;28;20022;-68
2022/05/14 05:45:05;;;;;;;15.18;3.85;;;;;;;;;;5116681;28;20031;-68
2022/05/14 05:47:31;;;;;;;21.10;4.63;;;;;;;;;;5108997;28;20490;-68
2022/05/14 05:50:03;;;;;;;14.98;3.97;;;;;;;;;;5117178;28;20008;-68
2022/05/14 05:52:34;;;;;;;13.15;3.42;;;;;;;;;;5105050;28;20471;-68
2022/05/14 05:57:56;;;;;;;13.45;3.40;;;;;;;;;;5112684;28;20099;-68
2022/05/14 06:00:23;;;;;;;12.70;3.78;;;;;;;;;;5115911;28;20080;-68
2022/05/14 06:02:49;;;;;;;21.25;4.03;;;;;;;;;;5106895;28;20405;-68
2022/05/14 06:05:27;;;;;;;8.85;3.85;;;;;;;;;;5113880;28;20019;-68
2022/05/14 06:07:53;;;;;;;16.02;4.15;;;;;;;;;;5107874;28;20357;-68
2022/05/14 06:10:19;;;;;;;10.93;3.55;;;;;;;;;;5116012;28;20019;-68
2022/05/14 06:12:58;;;;;;;16.98;4.78;;;;;;;;;;5111463;28;20383;-68
2022/05/14 06:15:24;;;;;;;18.60;3.78;;;;;;;;;;5116376;28;20058;-68
2022/05/14 06:17:49;;;;;;;11.25;3.33;;;;;;;;;;5086895;28;20047;-68
2022/05/14 06:20:27;;;;;;;16.92;3.53;;;;;;;;;;5116280;28;20031;-68
2022/05/14 06:22:53;;;;;;;17.27;3.63;;;;;;;;;;5103076;28;20027;-68
2022/05/14 06:25:18;;;;;;;21.77;4.07;;;;;;;;;;5114125;28;20015;-68
2022/05/14 06:27:56;;;;;;;12.50;3.53;;;;;;;;;;5114654;28;20026;-68
2022/05/14 06:30:22;;;;;;;19.08;3.90;;;;;;;;;;5105541;28;20109;-68
2022/05/14 06:32:47;;;;;;;15.40;3.17;;;;;;;;;;5098469;28;20012;-68
2022/05/14 06:35:25;;;;;;;14.80;3.55;;;;;;;;;;5106133;28;20016;-68
2022/05/14 06:37:51;;;;;;;12.35;3.33;;;;;;;;;;5115571;28;20028;-68
2022/05/14 06:40:16;;;;;;;9.90;3.03;;;;;;;;;;5113416;28;20102;-68
2022/05/14 06:42:54;;;;;;;9.68;3.30;;;;;;;;;;5115695;28;20019;-68
2022/05/14 06:45:20;;;;;;;12.30;3.55;;;;;;;;;;5104303;28;20485;-68
2022/05/14 06:47:45;;;;;;;13.68;3.28;;;;;;;;;;5110407;28;20090;-68
2022/05/14 06:50:23;;;;;;;18.92;4.18;;;;;;;;;;5115682;28;20020;-68
2022/05/14 06:52:52;;;;;;;16.30;3.67;;;;;;;;;;5113774;28;20106;-68
2022/05/14 06:55:32;;;;;;;7.65;3.30;;;;;;;;;;5115263;28;20410;-68
2022/05/14 06:57:57;;;;;;;8.25;2.95;;;;;;;;;;5115444;28;20030;-68
2022/05/14 07:00:23;;;;;;;11.15;2.58;;;;;;;;;;5114649;28;20023;-68
2022/05/14 07:08:35;;;;;;;;;;;;;;;;;;5106099;28;20031;-68
2022/05/14 07:11:09;;;;;;;9.68;3.30;;;;;;;;;;5113205;28;20373;-68
2022/05/14 07:13:35;;;;;;;12.82;3.15;;;;;;;;;;5115165;28;20023;-68
2022/05/14 07:16:06;;;;;;;17.25;3.17;;;;;;;;;;5115106;28;20034;-69
2022/05/14 07:18:38;;;;;;;7.80;2.85;;;;;;;;;;5114995;28;20032;-68
2022/05/14 07:21:04;;;;;;;8.95;2.65;;;;;;;;;;5112227;28;20059;-68
2022/05/14 07:23:35;;;;;;;10.70;2.85;;;;;;;;;;5112011;28;20047;-69
2022/05/14 07:26:08;;;;;;;8.85;2.63;;;;;;;;;;5114423;28;20509;-69
2022/05/14 07:28:34;;;;;;;12.65;3.10;;;;;;;;;;5111152;28;20028;-69
2022/05/14 07:31:08;;;;;;;10.02;2.83;;;;;;;;;;5112736;28;20098;-69
2022/05/14 07:33:40;;;;;;;10.10;2.92;;;;;;;;;;5111000;28;20088;-69
2022/05/14 07:36:20;;;;;;;13.52;2.70;;;;;;;;;;5108306;28;20066;-69
2022/05/14 07:38:58;;;;;;;9.45;2.92;;;;;;;;;;5103850;28;20533;-69
2022/05/14 07:41:30;;;;;;;9.27;3.20;;;;;;;;;;5100501;28;20114;-69
2022/05/14 07:44:05;;;;;;;10.90;3.25;;;;;;;;;;5112393;28;20036;-69
2022/05/14 07:46:38;;;;;;;10.85;3.00;;;;;;;;;;5106328;28;20070;-69
2022/05/14 07:49:12;;;;;;;15.43;3.47;;;;;;;;;;5105669;28;20433;-70
2022/05/14 07:51:38;;;;;;;17.30;3.58;;;;;;;;;;5096356;28;20032;-70
2022/05/14 07:54:09;;;;;;;15.73;3.00;;;;;;;;;;5109425;28;20046;-69
2022/05/14 07:56:43;;;;;;;12.65;3.90;;;;;;;;;;5107155;28;20074;-70
2022/05/14 07:59:08;;;;;;;11.40;3.40;;;;;;;;;;5104660;28;20099;-69
2022/05/14 08:01:43;;;;;;;14.02;3.42;;;;;;;;;;5098024;28;20111;-67
2022/05/14 08:04:15;;;;;;;11.75;3.55;;;;;;;;;;5095967;28;20024;-67
2022/05/14 08:06:46;;;;;;;15.10;3.93;;;;;;;;;;5100915;28;20036;-67
2022/05/14 08:09:12;;;;;;;11.27;3.63;;;;;;;;;;5108492;28;20267;-67
2022/05/14 08:11:44;;;;;;;14.93;3.60;;;;;;;;;;5109264;28;20031;-67
2022/05/14 08:14:15;;;;;;;12.60;4.07;;;;;;;;;;5104748;28;20023;-68
2022/05/14 08:16:41;;;;;;;12.98;3.70;;;;;;;;;;5106952;28;20043;-68
2022/05/14 08:19:13;;;;;;;13.32;3.50;;;;;;;;;;5100804;28;20063;-68
2022/05/14 08:24:36;;;;;;;12.00;3.65;;;;;;;;;;5099089;28;20061;-68
2022/05/14 08:27:09;;;;;;;12.80;3.58;;;;;;;;;;5104354;28;20040;-68
2022/05/14 08:29:43;;;;;;;12.73;3.72;;;;;;;;;;5113176;28;20110;-68
2022/05/14 08:32:09;;;;;;;14.02;3.50;;;;;;;;;;5108495;28;20055;-68
2022/05/14 08:34:40;;;;;;;11.80;3.25;;;;;;;;;;5113663;28;20081;-68
2022/05/14 08:37:13;;;;;;;10.73;3.58;;;;;;;;;;5105802;28;20048;-67
2022/05/14 08:39:38;;;;;;;12.50;3.45;;;;;;;;;;5107690;28;20106;-68
2022/05/14 08:42:11;;;;;;;13.63;3.97;;;;;;;;;;5110530;28;20107;-68
2022/05/14 08:44:45;;;;;;;15.65;3.83;;;;;;;;;;5106029;28;20603;-68
2022/05/14 08:47:29;;;;;;;14.10;4.28;;;;;;;;;;5108164;28;20038;-68
2022/05/14 08:50:02;;;;;;;15.98;3.80;;;;;;;;;;5099106;28;20433;-68
2022/05/14 08:52:29;;;;;;;15.90;3.60;;;;;;;;;;5100912;28;20059;-68
2022/05/14 08:55:04;;;;;;;15.20;3.85;;;;;;;;;;5104584;28;20493;-68
2022/05/14 08:57:52;;;;;;;13.65;3.58;;;;;;;;;;5113315;28;20038;-68
2022/05/14 09:00:23;;;;;;;13.50;3.88;;;;;;;;;;5097722;28;20024;-68
2022/05/14 09:02:56;;;;;;;14.13;3.72;;;;;;;;;;5101845;28;20047;-68
2022/05/14 09:05:30;;;;;;;12.68;3.55;;;;;;;;;;5113665;28;20419;-68
2022/05/14 09:08:03;;;;;;;10.90;3.35;;;;;;;;;;5112113;28;20066;-68
2022/05/14 09:10:30;;;;;;;16.65;4.07;;;;;;;;;;5108624;28;20028;-68
2022/05/14 09:13:01;;;;;;;15.35;3.83;;;;;;;;;;5113257;28;20031;-68
2022/05/14 09:15:34;;;;;;;17.47;4.30;;;;;;;;;;5111928;28;20039;-68
2022/05/14 09:18:10;;;;;;;12.20;3.50;;;;;;;;;;5117488;28;20302;-68
2022/05/14 09:21:09;;;;;;;14.77;3.95;;;;;;;;;;5113133;28;20143;-68
2022/05/14 09:23:44;;;;;;;17.58;3.97;;;;;;;;;;5098559;28;20040;-68
2022/05/14 09:26:17;;;;;;;14.75;3.95;;;;;;;;;;5109144;28;20103;-68
2022/05/14 09:28:53;;;;;;;20.48;4.28;;;;;;;;;;5115154;28;20035;-68
2022/05/14 09:31:29;;;;;;;14.07;3.45;;;;;;;;;;5107349;28;20479;-68
2022/05/14 09:34:20;;;;;;;11.95;3.55;;;;;;;;;;5105642;28;20472;-68
2022/05/14 09:36:53;;;;;;;14.30;3.58;;;;;;;;;;5105705;28;20046;-68
2022/05/14 09:39:28;;;;;;;12.70;3.40;;;;;;;;;;5116451;28;20028;-68
2022/05/14 09:42:01;;;;;;;12.93;3.80;;;;;;;;;;5113182;28;20051;-68
2022/05/14 09:44:52;;;;;;;11.23;3.03;;;;;;;;;;5115826;28;20038;-68
2022/05/14 09:47:26;;;;;;;15.38;4.00;;;;;;;;;;5116069;28;20049;-68
2022/05/14 09:50:05;;;;;;;13.52;3.45;;;;;;;;;;5106823;28;20030;-68
2022/05/14 09:52:38;;;;;;;17.20;3.78;;;;;;;;;;5116450;28;20057;-67
2022/05/14 09:55:13;;;;;;;14.88;3.95;;;;;;;;;;5116529;28;20047;-68
2022/05/14 09:58:00;;;;;;;12.23;3.60;;;;;;;;;;5116754;28;20108;-68
2022/05/14 10:00:38;;;;;;;12.65;3.58;;;;;;;;;;5108351;28;20024;-68
2022/05/14 10:03:37;;;;;;;15.25;4.55;;;;;;;;;;5116264;28;20483;-68
2022/05/14 10:06:15;;;;;;;17.55;4.28;;;;;;;;;;5102237;28;20403;-68
2022/05/14 10:09:08;;;;;;;24.45;4.32;;;;;;;;;;5107037;28;20036;-68
2022/05/14 10:11:44;;;;;;;;;;;;;;;;;;5116947;28;20039;-67
2022/05/14 10:14:25;;;;;;;13.88;4.10;;;;;;;;;;5116292;28;20263;-67
2022/05/14 10:16:58;;;;;;;19.30;5.45;;;;;;;;;;5114561;28;20034;-67
2022/05/14 10:19:41;;;;;;;20.15;4.75;;;;;;;;;;5116195;28;20352;-67
2022/05/14 10:22:23;;;;;;;17.58;5.93;;;;;;;;;;5115794;28;20032;-67
2022/05/14 10:28:23;;;;;;;18.17;5.72;;;;;;;;;;5103200;28;20034;-67
2022/05/14 10:31:14;;;;;;;18.88;5.28;;;;;;;;;;5114697;28;20449;-67
2022/05/14 10:33:45;;;;;;;20.63;6.07;;;;;;;;;;5115943;28;20027;-69
2022/05/14 10:36:27;;;;;;;17.25;6.00;;;;;;;;;;5115871;28;20035;-70
2022/05/14 10:39:03;;;;;;;18.27;5.90;;;;;;;;;;5107197;28;20077;-69
2022/05/14 10:41:37;;;;;;;18.23;5.50;;;;;;;;;;5115614;28;20050;-69
2022/05/14 10:44:13;;;;;;;22.65;5.63;;;;;;;;;;5115723;28;20043;-69
2022/05/14 10:46:46;;;;;;;16.20;5.32;;;;;;;;;;5115707;28;20130;-69
2022/05/14 10:49:20;;;;;;;20.98;5.32;;;;;;;;;;5114968;28;20097;-69
2022/05/14 10:51:52;;;;;;;19.90;5.70;;;;;;;;;;5115228;28;20028;-69
2022/05/14 10:54:19;;;;;;;19.55;5.97;;;;;;;;;;5115536;28;20031;-69
2022/05/14 10:57:03;;;;;;;14.60;5.30;;;;;;;;;;5114898;28;20394;-69
2022/05/14 10:59:38;;;;;;;17.48;5.50;;;;;;;;;;5115293;28;20494;-69
2022/05/14 11:02:30;;;;;;;15.38;5.18;;;;;;;;;;5115360;28;20491;-69
2022/05/14 11:05:02;;;;;;;16.05;5.35;;;;;;;;;;5115224;28;20031;-68
2022/05/14 11:07:39;;;;;;;20.27;5.78;;;;;;;;;;5112551;28;20024;-68
2022/05/14 11:10:11;;;;;;;18.13;5.88;;;;;;;;;;5115089;28;20463;-68
2022/05/14 11:12:37;;;;;;;14.07;4.88;;;;;;;;;;5115336;28;20028;-68
2022/05/14 11:15:11;;;;;;;14.95;5.13;;;;;;;;;;5114982;28;20041;-69
2022/05/14 11:17:36;;;;;;;;;;;;;;;;;;5115548;28;20122;-68
2022/05/14 11:20:10;;;;;;;15.90;4.65;;;;;;;;;;5114978;28;20378;-69
2022/05/14 11:22:41;;;;;;;15.07;5.38;;;;;;;;;;5114841;28;20031;-68
2022/05/14 11:25:22;;;;;;;17.00;5.43;;;;;;;;;;5114766;28;20031;-68
2022/05/14 11:28:01;;;;;;;16.85;4.88;;;;;;;;;;5098550;28;20019;-69
2022/05/14 11:30:35;;;;;;;16.42;4.72;;;;;;;;;;5111669;28;20059;-69
2022/05/14 11:33:24;;;;;;;25.00;4.95;;;;;;;;;;5115056;28;20023;-68
2022/05/14 11:35:51;;;;;;;12.13;4.07;;;;;;;;;;5114504;28;20425;-68
2022/05/14 11:38:23;;;;;;;13.68;4.32;;;;;;;;;;5113366;28;20398;-68
2022/05/14 11:41:01;;;;;;;16.65;3.78;;;;;;;;;;5114206;28;20051;-68
2022/05/14 11:43:38;;;;;;;17.25;3.38;;;;;;;;;;5114510;28;20459;-68
2022/05/14 11:46:29;;;;;;;15.02;4.10;;;;;;;;;;5114423;28;20038;-69
2022/05/14 11:49:07;;;;;;;14.70;3.58;;;;;;;;;;5114474;28;20031;-68
2022/05/14 11:51:44;;;;;;;14.27;3.88;;;;;;;;;;5114546;28;20070;-68
2022/05/14 11:54:36;;;;;;;13.38;3.13;;;;;;;;;;5114441;28;20059;-68
2022/05/14 11:57:23;;;;;;;8.57;2.80;;;;;;;;;;5098873;28;20064;-68
2022/05/14 12:00:14;;;;;;;15.95;3.00;;;;;;;;;;5113934;28;20095;-69
2022/05/14 12:02:53;;;;;;;19.38;3.00;;;;;;;;;;5114290;28;20023;-68
2022/05/14 12:05:35;;;;;;;13.38;3.28;;;;;;;;;;5102563;28;20157;-68
2022/05/14 12:08:25;;;;;;;21.80;3.33;;;;;;;;;;5095554;28;20057;-68
2022/05/14 12:11:04;;;;;;;16.52;3.13;;;;;;;;;;5103335;28;20092;-68
2022/05/14 12:13:35;;;;;;;12.20;3.30;;;;;;;;;;5102268;28;20020;-69
2022/05/14 12:16:09;;;;;;;16.10;2.92;;;;;;;;;;5113941;28;20429;-68
2022/05/14 12:18:34;;;;;;;12.25;3.38;;;;;;;;;;5114100;28;20110;-68
2022/05/14 12:21:11;;;;;;;15.65;3.40;;;;;;;;;;5111705;28;20102;-68
2022/05/14 12:23:44;;;;;;;18.40;3.95;;;;;;;;;;5102584;28;20057;-68
2022/05/14 12:26:38;;;;;;;13.45;3.58;;;;;;;;;;5098499;28;20024;-69
2022/05/14 12:29:14;;;;;;;17.92;3.90;;;;;;;;;;5110391;28;20492;-68
2022/05/14 12:34:38;;;;;;;16.80;3.80;;;;;;;;;;5102764;28;20038;-68
2022/05/14 12:37:22;;;;;;;13.15;3.85;;;;;;;;;;5107129;28;20071;-68
2022/05/14 12:39:56;;;;;;;17.60;4.00;;;;;;;;;;5107842;28;20027;-68
2022/05/14 12:42:30;;;;;;;12.35;3.92;;;;;;;;;;5112742;28;20028;-68
2022/05/14 12:45:04;;;;;;;14.25;3.15;;;;;;;;;;5106612;28;20034;-68
2022/05/14 12:47:40;;;;;;;13.48;3.28;;;;;;;;;;5103373;28;20027;-68
2022/05/14 12:50:20;;;;;;;12.50;3.60;;;;;;;;;;5103951;28;20035;-69
2022/05/14 12:53:01;;;;;;;15.38;3.78;;;;;;;;;;5112913;28;20039;-68
2022/05/14 12:55:41;;;;;;;12.07;3.00;;;;;;;;;;5099146;28;20019;-69
2022/05/14 12:58:14;;;;;;;10.18;3.78;;;;;;;;;;5112518;28;20152;-68
2022/05/14 13:00:49;;;;;;;15.25;3.35;;;;;;;;;;5100232;28;20499;-68
2022/05/14 13:03:30;;;;;;;8.40;2.95;;;;;;;;;;5106352;28;20112;-69
2022/05/14 13:06:22;;;;;;;12.25;3.13;;;;;;;;;;5102972;28;20059;-69
2022/05/14 13:08:57;;;;;;;13.90;3.40;;;;;;;;;;5107395;28;20536;-68
2022/05/14 13:11:30;;;;;;;13.00;3.35;;;;;;;;;;5111217;28;20068;-68
2022/05/14 13:14:21;;;;;;;12.00;3.20;;;;;;;;;;5113251;28;20051;-68
2022/05/14 13:16:57;;;;;;;15.93;2.80;;;;;;;;;;5106915;28;20036;-68
2022/05/14 13:19:29;;;;;;;11.43;2.80;;;;;;;;;;5103159;28;20046;-69
2022/05/14 13:22:01;;;;;;;12.90;3.28;;;;;;;;;;5107219;28;20469;-69
2022/05/14 13:24:28;;;;;;;19.73;3.40;;;;;;;;;;5103375;28;20028;-68
2022/05/14 13:27:01;;;;;;;17.63;3.15;;;;;;;;;;5109930;28;20020;-69
2022/05/14 13:29:35;;;;;;;10.80;2.55;;;;;;;;;;5113136;28;20038;-69
2022/05/14 13:32:15;;;;;;;11.90;3.20;;;;;;;;;;5109542;28;20130;-69
2022/05/14 13:37:43;;;;;;;14.48;2.75;;;;;;;;;;5104868;28;20092;-68
2022/05/14 13:40:17;;;;;;;7.45;2.15;;;;;;;;;;5104494;28;20043;-69
2022/05/14 13:42:51;;;;;;;13.77;3.33;;;;;;;;;;5106889;28;20032;-69
2022/05/14 13:45:29;;;;;;;13.57;2.50;;;;;;;;;;5099826;28;20035;-69
2022/05/14 13:48:10;;;;;;;10.60;2.17;;;;;;;;;;5107659;28;20475;-68
2022/05/14 13:50:43;;;;;;;11.48;2.97;;;;;;;;;;5099401;28;20028;-69
2022/05/14 13:53:49;;;;;;;15.25;2.80;;;;;;;;;;5106693;28;20135;-68
2022/05/14 13:56:22;;;;;;;10.80;2.45;;;;;;;;;;5029291;28;20055;-69
2022/05/14 13:59:12;;;;;;;13.98;3.17;;;;;;;;;;5090167;28;20036;-68
2022/05/14 14:01:51;;;;;;;12.90;2.72;;;;;;;;;;5112255;28;20024;-69
2022/05/14 14:04:27;;;;;;;14.02;2.88;;;;;;;;;;5116577;28;20035;-69
2022/05/14 14:07:00;;;;;;;7.22;2.20;;;;;;;;;;5116490;28;20108;-68
2022/05/14 14:09:26;;;;;;;12.90;2.90;;;;;;;;;;5106720;28;20035;-69
2022/05/14 14:11:58;;;;;;;8.15;2.47;;;;;;;;;;5116421;28;20474;-68
2022/05/14 14:14:30;;;;;;;14.73;2.63;;;;;;;;;;5116207;28;20050;-68
2022/05/14 14:16:55;;;;;;;11.10;3.17;;;;;;;;;;5111845;28;20039;-69
2022/05/14 14:19:27;;;;;;;17.15;3.47;;;;;;;;;;5114511;28;20020;-69
2022/05/14 14:22:01;;;;;;;14.18;3.17;;;;;;;;;;5110007;28;20026;-68
2022/05/14 14:24:27;;;;;;;11.00;3.67;;;;;;;;;;5115332;28;20114;-69
2022/05/14 14:26:59;;;;;;;14.23;3.45;;;;;;;;;;5116090;28;20012;-68
2022/05/14 14:29:31;;;;;;;13.77;2.90;;;;;;;;;;5115945;28;20038;-69
2022/05/14 14:31:56;;;;;;;11.25;2.47;;;;;;;;;;5114756;28;20495;-69
2022/05/14 14:34:29;;;;;;;17.05;3.08;;;;;;;;;;5116053;28;20022;-68
2022/05/14 14:37:01;;;;;;;13.05;2.95;;;;;;;;;;5115748;28;20067;-68
2022/05/14 14:39:26;;;;;;;12.32;3.47;;;;;;;;;;5115951;28;20027;-68
2022/05/14 14:41:58;;;;;;;18.75;3.45;;;;;;;;;;5115680;28;20076;-68
2022/05/14 14:44:30;;;;;;;18.08;3.00;;;;;;;;;;5115825;28;20111;-69
2022/05/14 14:46:57;;;;;;;10.48;2.97;;;;;;;;;;5115357;28;20069;-69
2022/05/14 14:49:29;;;;;;;10.68;2.38;;;;;;;;;;5115439;28;20065;-69
2022/05/14 14:52:01;;;;;;;11.10;2.90;;;;;;;;;;5115396;28;20081;-68
2022/05/14 14:54:26;;;;;;;8.95;2.75;;;;;;;;;;5099688;28;20541;-69
2022/05/14 14:56:58;;;;;;;12.82;2.67;;;;;;;;;;5110890;28;20020;-68
2022/05/14 14:59:30;;;;;;;12.95;3.10;;;;;;;;;;5115562;28;20055;-68
2022/05/14 15:02:05;;;;;;;13.35;2.30;;;;;;;;;;5115538;28;20106;-69
2022/05/14 15:04:49;;;;;;;10.75;2.33;;;;;;;;;;5115288;28;20031;-68
2022/05/14 15:07:21;;;;;;;13.27;2.85;;;;;;;;;;5105968;28;20039;-69
2022/05/14 15:09:53;;;;;;;12.13;2.50;;;;;;;;;;5110845;28;20019;-69
2022/05/14 15:12:19;;;;;;;13.02;2.72;;;;;;;;;;5114398;28;20034;-69
2022/05/14 15:14:51;;;;;;;10.32;2.47;;;;;;;;;;5115295;28;20012;-69
2022/05/14 15:17:25;;;;;;;11.68;2.42;;;;;;;;;;5114967;28;20067;-69
2022/05/14 15:19:50;;;;;;;12.68;2.13;;;;;;;;;;5102594;28;20480;-69
2022/05/14 15:22:23;;;;;;;15.63;2.90;;;;;;;;;;5106153;28;20038;-69
2022/05/14 15:24:49;;;;;;;;;;;;;;;;;;5108276;28;20405;-68
2022/05/14 15:27:21;;;;;;;11.30;2.67;;;;;;;;;;5108347;28;19992;-69
2022/05/14 15:29:53;;;;;;;41.97;8.73;;;;;;;;;;5109823;28;20451;-69